sensor_id;sensor_type;location;lat;lon;timestamp;pressure;altitude;pressure_sealevel;temperature;humidity
54266;BME280;40836;39.770;2.714;2022-09-12T00:01:23;101282.78;;;25.46;65.62
54266;BME280;40836;39.770;2.714;2022-09-12T00:03:54;101283.13;;;25.41;65.42
54266;BME280;40836;39.770;2.714;2022-09-12T00:06:24;101281.56;;;25.40;65.69
54266;BME280;40836;39.770;2.714;2022-09-12T00:08:54;101280.72;;;25.32;65.31
54266;BME280;40836;39.770;2.714;2022-09-12T00:11:20;101271.13;;;25.19;65.39
54266;BME280;40836;39.770;2.714;2022-09-12T00:13:46;101266.47;;;25.23;64.75
54266;BME280;40836;39.770;2.714;2022-09-12T00:16:22;101256.97;;;25.21;65.04
54266;BME280;40836;39.770;2.714;2022-09-12T00:18:48;101239.09;;;25.07;65.14
54266;BME280;40836;39.770;2.714;2022-09-12T00:21:16;101254.19;;;25.17;64.18
54266;BME280;40836;39.770;2.714;2022-09-12T00:23:42;101243.94;;;25.18;64.51
54266;BME280;40836;39.770;2.714;2022-09-12T00:26:08;101238.34;;;25.10;64.77
54266;BME280;40836;39.770;2.714;2022-09-12T00:28:35;101232.03;;;25.10;64.55
54266;BME280;40836;39.770;2.714;2022-09-12T00:31:07;101232.69;;;24.96;64.91
54266;BME280;40836;39.770;2.714;2022-09-12T00:33:34;101229.16;;;24.96;64.21
54266;BME280;40836;39.770;2.714;2022-09-12T00:36:04;101211.75;;;24.88;64.04
54266;BME280;40836;39.770;2.714;2022-09-12T00:38:30;101211.84;;;24.99;64.47
54266;BME280;40836;39.770;2.714;2022-09-12T00:40:56;101222.09;;;25.02;63.74
54266;BME280;40836;39.770;2.714;2022-09-12T00:43:39;101211.84;;;24.99;64.14
54266;BME280;40836;39.770;2.714;2022-09-12T00:48:56;101203.06;;;24.86;64.44
54266;BME280;40836;39.770;2.714;2022-09-12T00:51:23;101204.94;;;24.75;64.50
54266;BME280;40836;39.770;2.714;2022-09-12T00:53:51;101197.09;;;24.80;64.48
54266;BME280;40836;39.770;2.714;2022-09-12T00:56:18;101186.03;;;24.77;64.78
54266;BME280;40836;39.770;2.714;2022-09-12T00:58:54;101183.72;;;24.82;64.10
54266;BME280;40836;39.770;2.714;2022-09-12T01:01:22;101175.84;;;24.81;64.88
54266;BME280;40836;39.770;2.714;2022-09-12T01:03:48;101171.88;;;24.78;64.33
54266;BME280;40836;39.770;2.714;2022-09-12T01:06:39;101169.09;;;24.75;65.25
54266;BME280;40836;39.770;2.714;2022-09-12T01:09:03;101165.09;;;24.68;64.99
54266;BME280;40836;39.770;2.714;2022-09-12T01:11:35;101158.78;;;24.64;65.10
54266;BME280;40836;39.770;2.714;2022-09-12T01:14:01;101160.75;;;24.67;65.30
54266;BME280;40836;39.770;2.714;2022-09-12T01:16:26;101158.38;;;24.66;64.50
54266;BME280;40836;39.770;2.714;2022-09-12T01:27:21;101164.63;;;24.59;64.51
54266;BME280;40836;39.770;2.714;2022-09-12T01:35:26;101163.66;;;24.41;64.24
54266;BME280;40836;39.770;2.714;2022-09-12T01:38:20;101153.19;;;24.16;64.16
54266;BME280;40836;39.770;2.714;2022-09-12T01:41:14;101154.28;;;24.12;64.37
54266;BME280;40836;39.770;2.714;2022-09-12T01:43:48;101153.59;;;24.22;64.69
54266;BME280;40836;39.770;2.714;2022-09-12T01:46:17;101156.06;;;24.31;63.94
54266;BME280;40836;39.770;2.714;2022-09-12T01:49:16;101147.44;;;24.32;63.44
54266;BME280;40836;39.770;2.714;2022-09-12T01:51:59;101152.53;;;24.30;63.27
54266;BME280;40836;39.770;2.714;2022-09-12T01:54:38;101155.56;;;24.21;63.92
54266;BME280;40836;39.770;2.714;2022-09-12T01:57:10;101151.97;;;24.14;63.80
54266;BME280;40836;39.770;2.714;2022-09-12T01:59:42;101140.41;;;24.01;63.84
54266;BME280;40836;39.770;2.714;2022-09-12T02:02:15;101142.47;;;24.11;63.57
54266;BME280;40836;39.770;2.714;2022-09-12T02:04:54;101136.84;;;23.97;64.38
54266;BME280;40836;39.770;2.714;2022-09-12T02:07:30;101131.44;;;24.08;64.06
54266;BME280;40836;39.770;2.714;2022-09-12T02:10:13;101127.09;;;24.07;64.39
54266;BME280;40836;39.770;2.714;2022-09-12T02:13:03;101119.94;;;24.02;65.00
54266;BME280;40836;39.770;2.714;2022-09-12T02:15:35;101119.13;;;23.98;64.93
54266;BME280;40836;39.770;2.714;2022-09-12T02:18:04;101116.47;;;24.09;64.06
54266;BME280;40836;39.770;2.714;2022-09-12T02:20:36;101110.09;;;24.01;64.48
54266;BME280;40836;39.770;2.714;2022-09-12T02:23:05;101100.66;;;24.02;64.07
54266;BME280;40836;39.770;2.714;2022-09-12T02:25:33;101107.44;;;24.12;62.83
54266;BME280;40836;39.770;2.714;2022-09-12T02:28:12;101109.38;;;24.08;62.83
54266;BME280;40836;39.770;2.714;2022-09-12T02:30:55;101108.97;;;24.06;63.03
54266;BME280;40836;39.770;2.714;2022-09-12T02:38:55;101095.09;;;23.95;63.73
54266;BME280;40836;39.770;2.714;2022-09-12T02:41:21;101101.50;;;24.06;63.92
54266;BME280;40836;39.770;2.714;2022-09-12T02:43:48;101102.69;;;24.09;63.34
54266;BME280;40836;39.770;2.714;2022-09-12T02:46:20;101105.03;;;24.03;63.45
54266;BME280;40836;39.770;2.714;2022-09-12T02:48:46;101090.41;;;23.99;63.61
54266;BME280;40836;39.770;2.714;2022-09-12T02:51:11;101106.97;;;24.03;63.65
54266;BME280;40836;39.770;2.714;2022-09-12T02:53:38;101093.19;;;24.03;63.92
54266;BME280;40836;39.770;2.714;2022-09-12T02:56:07;101101.50;;;24.06;64.29
54266;BME280;40836;39.770;2.714;2022-09-12T02:58:33;101105.69;;;23.93;64.62
54266;BME280;40836;39.770;2.714;2022-09-12T03:01:13;101100.19;;;23.93;64.74
54266;BME280;40836;39.770;2.714;2022-09-12T03:03:50;101105.66;;;23.89;65.03
54266;BME280;40836;39.770;2.714;2022-09-12T03:06:34;101108.41;;;23.89;65.14
54266;BME280;40836;39.770;2.714;2022-09-12T03:12:09;101104.81;;;23.85;65.05
54266;BME280;40836;39.770;2.714;2022-09-12T03:14:59;101106.38;;;23.83;65.25
54266;BME280;40836;39.770;2.714;2022-09-12T03:20:10;101106.91;;;23.62;66.38
54266;BME280;40836;39.770;2.714;2022-09-12T03:22:55;101068.53;;;23.42;66.27
54266;BME280;40836;39.770;2.714;2022-09-12T03:27:59;101097.44;;;23.59;66.57
54266;BME280;40836;39.770;2.714;2022-09-12T03:30:37;101112.41;;;23.62;66.17
54266;BME280;40836;39.770;2.714;2022-09-12T03:33:03;101116.69;;;23.59;66.79
54266;BME280;40836;39.770;2.714;2022-09-12T03:35:28;101093.34;;;23.46;65.93
54266;BME280;40836;39.770;2.714;2022-09-12T03:37:54;101127.00;;;23.66;66.18
54266;BME280;40836;39.770;2.714;2022-09-12T03:40:19;101138.00;;;23.66;66.17
54266;BME280;40836;39.770;2.714;2022-09-12T03:42:45;101137.97;;;23.62;66.53
54266;BME280;40836;39.770;2.714;2022-09-12T03:45:11;101134.28;;;23.51;66.68
54266;BME280;40836;39.770;2.714;2022-09-12T03:47:36;101126.84;;;23.51;66.63
54266;BME280;40836;39.770;2.714;2022-09-12T03:50:03;101131.53;;;23.51;66.69
54266;BME280;40836;39.770;2.714;2022-09-12T03:52:28;101129.59;;;23.51;65.38
54266;BME280;40836;39.770;2.714;2022-09-12T03:54:54;101134.09;;;23.67;64.54
54266;BME280;40836;39.770;2.714;2022-09-12T03:57:19;101125.97;;;23.74;64.88
54266;BME280;40836;39.770;2.714;2022-09-12T03:59:45;101129.94;;;23.80;63.66
54266;BME280;40836;39.770;2.714;2022-09-12T04:02:12;101133.19;;;23.89;62.78
54266;BME280;40836;39.770;2.714;2022-09-12T04:04:40;101140.66;;;23.89;62.67
54266;BME280;40836;39.770;2.714;2022-09-12T04:07:08;101141.09;;;23.91;62.12
54266;BME280;40836;39.770;2.714;2022-09-12T04:09:34;101137.56;;;23.90;60.60
54266;BME280;40836;39.770;2.714;2022-09-12T04:11:59;101139.16;;;23.95;61.29
54266;BME280;40836;39.770;2.714;2022-09-12T04:14:25;101134.72;;;23.87;61.31
54266;BME280;40836;39.770;2.714;2022-09-12T04:16:50;101120.31;;;23.67;61.54
54266;BME280;40836;39.770;2.714;2022-09-12T04:19:16;101123.13;;;23.70;60.68
54266;BME280;40836;39.770;2.714;2022-09-12T04:21:42;101101.78;;;23.64;61.28
54266;BME280;40836;39.770;2.714;2022-09-12T04:24:07;101116.38;;;23.64;61.60
54266;BME280;40836;39.770;2.714;2022-09-12T04:26:33;101108.06;;;23.61;61.85
54266;BME280;40836;39.770;2.714;2022-09-12T04:28:59;101107.16;;;23.49;61.84
54266;BME280;40836;39.770;2.714;2022-09-12T04:31:24;101082.59;;;23.37;62.47
54266;BME280;40836;39.770;2.714;2022-09-12T04:33:58;101103.09;;;23.40;63.37
54266;BME280;40836;39.770;2.714;2022-09-12T04:36:26;101105.81;;;23.36;63.58
54266;BME280;40836;39.770;2.714;2022-09-12T04:38:52;101099.06;;;23.34;64.17
54266;BME280;40836;39.770;2.714;2022-09-12T04:41:30;101101.31;;;23.24;64.57
54266;BME280;40836;39.770;2.714;2022-09-12T04:44:01;101105.59;;;23.22;64.85
54266;BME280;40836;39.770;2.714;2022-09-12T04:46:35;101104.03;;;23.21;64.74
54266;BME280;40836;39.770;2.714;2022-09-12T04:49:01;101098.09;;;23.19;64.60
54266;BME280;40836;39.770;2.714;2022-09-12T04:51:29;101110.78;;;23.27;64.37
54266;BME280;40836;39.770;2.714;2022-09-12T04:54:00;101098.56;;;23.24;64.79
54266;BME280;40836;39.770;2.714;2022-09-12T04:56:27;101110.75;;;23.23;64.29
54266;BME280;40836;39.770;2.714;2022-09-12T04:58:56;101113.44;;;23.20;64.40
54266;BME280;40836;39.770;2.714;2022-09-12T05:01:22;101099.22;;;23.14;64.30
54266;BME280;40836;39.770;2.714;2022-09-12T05:03:48;101108.78;;;23.24;64.09
54266;BME280;40836;39.770;2.714;2022-09-12T05:06:25;101111.56;;;23.27;63.04
54266;BME280;40836;39.770;2.714;2022-09-12T05:08:52;101117.13;;;23.31;63.18
54266;BME280;40836;39.770;2.714;2022-09-12T05:11:20;101119.91;;;23.35;62.98
54266;BME280;40836;39.770;2.714;2022-09-12T05:13:46;101115.97;;;23.32;62.59
54266;BME280;40836;39.770;2.714;2022-09-12T05:16:13;101131.31;;;23.33;62.19
54266;BME280;40836;39.770;2.714;2022-09-12T05:18:42;101140.66;;;23.28;62.58
54266;BME280;40836;39.770;2.714;2022-09-12T05:21:11;101139.03;;;23.24;63.23
54266;BME280;40836;39.770;2.714;2022-09-12T05:23:37;101129.44;;;23.11;63.13
54266;BME280;40836;39.770;2.714;2022-09-12T05:26:04;101154.97;;;23.11;63.15
54266;BME280;40836;39.770;2.714;2022-09-12T05:28:38;101158.22;;;23.17;63.15
54266;BME280;40836;39.770;2.714;2022-09-12T05:31:14;101155.94;;;23.22;62.46
54266;BME280;40836;39.770;2.714;2022-09-12T05:33:42;101149.66;;;23.25;62.32
54266;BME280;40836;39.770;2.714;2022-09-12T05:36:13;101134.59;;;23.16;62.57
54266;BME280;40836;39.770;2.714;2022-09-12T05:38:39;101152.53;;;23.33;62.85
54266;BME280;40836;39.770;2.714;2022-09-12T05:41:16;101138.81;;;23.36;61.35
54266;BME280;40836;39.770;2.714;2022-09-12T05:43:42;101153.50;;;23.47;59.67
54266;BME280;40836;39.770;2.714;2022-09-12T05:46:16;101155.19;;;23.56;59.31
54266;BME280;40836;39.770;2.714;2022-09-12T05:48:43;101144.97;;;23.56;59.79
54266;BME280;40836;39.770;2.714;2022-09-12T05:51:18;101156.19;;;23.70;59.65
54266;BME280;40836;39.770;2.714;2022-09-12T05:53:50;101164.13;;;23.75;60.39
54266;BME280;40836;39.770;2.714;2022-09-12T05:56:19;101156.69;;;23.80;59.19
54266;BME280;40836;39.770;2.714;2022-09-12T05:58:54;101157.53;;;23.84;59.39
54266;BME280;40836;39.770;2.714;2022-09-12T06:01:20;101133.75;;;23.68;60.36
54266;BME280;40836;39.770;2.714;2022-09-12T06:03:48;101144.91;;;23.83;59.73
54266;BME280;40836;39.770;2.714;2022-09-12T06:06:15;101135.06;;;23.78;60.46
54266;BME280;40836;39.770;2.714;2022-09-12T06:08:43;101154.16;;;23.97;59.01
54266;BME280;40836;39.770;2.714;2022-09-12T06:11:11;101137.97;;;23.96;60.28
54266;BME280;40836;39.770;2.714;2022-09-12T06:13:38;101126.91;;;23.89;60.62
54266;BME280;40836;39.770;2.714;2022-09-12T06:16:17;101155.00;;;24.05;60.43
54266;BME280;40836;39.770;2.714;2022-09-12T06:18:51;101152.69;;;24.07;61.19
54266;BME280;40836;39.770;2.714;2022-09-12T06:21:19;101161.69;;;24.04;61.65
54266;BME280;40836;39.770;2.714;2022-09-12T06:23:44;101160.16;;;24.07;60.81
54266;BME280;40836;39.770;2.714;2022-09-12T06:26:11;101158.22;;;24.11;61.76
54266;BME280;40836;39.770;2.714;2022-09-12T06:28:41;101156.25;;;24.11;61.61
54266;BME280;40836;39.770;2.714;2022-09-12T06:31:15;101153.94;;;24.13;61.68
54266;BME280;40836;39.770;2.714;2022-09-12T06:33:43;101155.53;;;24.18;60.59
54266;BME280;40836;39.770;2.714;2022-09-12T06:36:20;101153.69;;;24.29;61.14
54266;BME280;40836;39.770;2.714;2022-09-12T06:38:47;101154.28;;;24.46;61.02
54266;BME280;40836;39.770;2.714;2022-09-12T06:41:15;101153.59;;;24.59;60.52
54266;BME280;40836;39.770;2.714;2022-09-12T06:43:41;101150.16;;;24.73;60.84
54266;BME280;40836;39.770;2.714;2022-09-12T06:46:07;101151.38;;;24.76;60.42
54266;BME280;40836;39.770;2.714;2022-09-12T06:48:33;101151.03;;;24.81;60.85
54266;BME280;40836;39.770;2.714;2022-09-12T06:51:04;101151.78;;;24.78;60.15
54266;BME280;40836;39.770;2.714;2022-09-12T06:53:31;101150.66;;;24.86;60.45
54266;BME280;40836;39.770;2.714;2022-09-12T06:56:12;101146.78;;;24.94;61.22
54266;BME280;40836;39.770;2.714;2022-09-12T06:58:38;101137.28;;;24.88;61.25
54266;BME280;40836;39.770;2.714;2022-09-12T07:01:18;101134.16;;;24.97;61.14
54266;BME280;40836;39.770;2.714;2022-09-12T07:03:49;101133.41;;;25.00;61.14
54266;BME280;40836;39.770;2.714;2022-09-12T07:06:17;101142.50;;;25.04;60.20
54266;BME280;40836;39.770;2.714;2022-09-12T07:08:43;101135.75;;;24.98;58.29
54266;BME280;40836;39.770;2.714;2022-09-12T07:11:23;101134.63;;;25.06;57.12
54266;BME280;40836;39.770;2.714;2022-09-12T07:13:52;101133.13;;;25.16;57.33
54266;BME280;40836;39.770;2.714;2022-09-12T07:16:18;101137.09;;;25.18;57.49
54266;BME280;40836;39.770;2.714;2022-09-12T07:18:48;101136.34;;;25.28;57.58
54266;BME280;40836;39.770;2.714;2022-09-12T07:21:14;101136.00;;;25.33;58.82
54266;BME280;40836;39.770;2.714;2022-09-12T07:23:40;101130.91;;;25.39;58.26
54266;BME280;40836;39.770;2.714;2022-09-12T07:26:07;101131.72;;;25.43;59.03
54266;BME280;40836;39.770;2.714;2022-09-12T07:28:34;101113.16;;;25.44;59.91
54266;BME280;40836;39.770;2.714;2022-09-12T07:31:06;101115.56;;;25.49;59.29
54266;BME280;40836;39.770;2.714;2022-09-12T07:33:33;101126.63;;;25.49;58.90
54266;BME280;40836;39.770;2.714;2022-09-12T07:36:04;101139.63;;;25.52;58.90
54266;BME280;40836;39.770;2.714;2022-09-12T07:38:30;101136.88;;;25.55;58.89
54266;BME280;40836;39.770;2.714;2022-09-12T07:40:55;101133.38;;;25.62;59.25
54266;BME280;40836;39.770;2.714;2022-09-12T07:43:21;101130.22;;;25.71;58.84
54266;BME280;40836;39.770;2.714;2022-09-12T07:45:54;101127.94;;;25.83;59.03
54266;BME280;40836;39.770;2.714;2022-09-12T07:48:19;101125.63;;;26.03;58.71
54266;BME280;40836;39.770;2.714;2022-09-12T07:50:44;101128.41;;;26.18;56.90
54266;BME280;40836;39.770;2.714;2022-09-12T07:53:10;101128.41;;;26.28;55.83
54266;BME280;40836;39.770;2.714;2022-09-12T07:55:35;101115.41;;;26.50;55.47
54266;BME280;40836;39.770;2.714;2022-09-12T07:58:01;101121.72;;;26.72;52.63
54266;BME280;40836;39.770;2.714;2022-09-12T08:00:27;101103.13;;;26.91;48.11
54266;BME280;40836;39.770;2.714;2022-09-12T08:03:00;101113.34;;;27.22;46.98
54266;BME280;40836;39.770;2.714;2022-09-12T08:05:27;101109.72;;;27.43;47.06
54266;BME280;40836;39.770;2.714;2022-09-12T08:07:52;101110.81;;;27.60;49.66
54266;BME280;40836;39.770;2.714;2022-09-12T08:10:18;101107.63;;;27.69;49.32
54266;BME280;40836;39.770;2.714;2022-09-12T08:12:43;101122.56;;;27.89;48.83
54266;BME280;40836;39.770;2.714;2022-09-12T08:15:09;101125.66;;;28.02;48.77
54266;BME280;40836;39.770;2.714;2022-09-12T08:17:34;101132.28;;;28.19;48.89
54266;BME280;40836;39.770;2.714;2022-09-12T08:20:00;101119.53;;;28.29;50.48
54266;BME280;40836;39.770;2.714;2022-09-12T08:22:26;101130.88;;;28.52;50.82
54266;BME280;40836;39.770;2.714;2022-09-12T08:24:51;101135.09;;;28.68;49.27
54266;BME280;40836;39.770;2.714;2022-09-12T08:27:17;101130.31;;;28.68;47.54
54266;BME280;40836;39.770;2.714;2022-09-12T08:29:43;101134.97;;;28.82;47.77
54266;BME280;40836;39.770;2.714;2022-09-12T08:32:09;101122.66;;;28.83;50.23
54266;BME280;40836;39.770;2.714;2022-09-12T08:34:34;101143.09;;;29.03;52.92
54266;BME280;40836;39.770;2.714;2022-09-12T08:37:00;101134.72;;;29.11;54.69
54266;BME280;40836;39.770;2.714;2022-09-12T08:39:25;101138.91;;;29.22;54.97
54266;BME280;40836;39.770;2.714;2022-09-12T08:42:01;101139.16;;;29.35;56.00
54266;BME280;40836;39.770;2.714;2022-09-12T08:44:40;101131.91;;;29.45;56.35
54266;BME280;40836;39.770;2.714;2022-09-12T08:52:13;101128.84;;;29.70;55.51
54266;BME280;40836;39.770;2.714;2022-09-12T08:54:41;101133.91;;;29.79;55.11
54266;BME280;40836;39.770;2.714;2022-09-12T08:57:09;101131.06;;;29.82;55.49
54266;BME280;40836;39.770;2.714;2022-09-12T08:59:41;101126.63;;;29.88;56.87
54266;BME280;40836;39.770;2.714;2022-09-12T09:10:29;101139.00;;;30.11;57.44
54266;BME280;40836;39.770;2.714;2022-09-12T09:13:07;101124.25;;;30.14;57.42
54266;BME280;40836;39.770;2.714;2022-09-12T09:16:10;101128.53;;;30.18;57.00
54266;BME280;40836;39.770;2.714;2022-09-12T09:18:42;101122.94;;;30.22;56.71
54266;BME280;40836;39.770;2.714;2022-09-12T09:23:45;101122.41;;;30.31;55.30
54266;BME280;40836;39.770;2.714;2022-09-12T09:26:23;101124.03;;;30.28;56.13
54266;BME280;40836;39.770;2.714;2022-09-12T09:29:11;101104.94;;;30.03;55.32
54266;BME280;40836;39.770;2.714;2022-09-12T09:31:39;101132.22;;;30.12;54.60
54266;BME280;40836;39.770;2.714;2022-09-12T09:34:22;101134.28;;;30.08;54.62
54266;BME280;40836;39.770;2.714;2022-09-12T09:36:54;101140.97;;;30.10;54.21
54266;BME280;40836;39.770;2.714;2022-09-12T09:45:17;101142.97;;;30.10;56.93
54266;BME280;40836;39.770;2.714;2022-09-12T09:50:42;101146.81;;;30.19;58.62
54266;BME280;40836;39.770;2.714;2022-09-12T09:53:36;101144.13;;;30.12;58.39
54266;BME280;40836;39.770;2.714;2022-09-12T09:56:28;101142.50;;;30.15;59.59
54266;BME280;40836;39.770;2.714;2022-09-12T09:58:54;101144.13;;;30.12;59.62
54266;BME280;40836;39.770;2.714;2022-09-12T10:01:20;101140.19;;;30.10;58.98
54266;BME280;40836;39.770;2.714;2022-09-12T10:03:54;101131.06;;;30.09;58.88
54266;BME280;40836;39.770;2.714;2022-09-12T10:08:46;101120.88;;;30.26;58.12
54266;BME280;40836;39.770;2.714;2022-09-12T10:13:52;101122.78;;;30.33;58.13
54266;BME280;40836;39.770;2.714;2022-09-12T10:16:31;101130.28;;;30.36;57.80
54266;BME280;40836;39.770;2.714;2022-09-12T10:18:58;101121.13;;;30.35;58.12
54266;BME280;40836;39.770;2.714;2022-09-12T10:21:45;101130.97;;;30.43;57.77
54266;BME280;40836;39.770;2.714;2022-09-12T10:24:27;101129.44;;;30.39;58.60
54266;BME280;40836;39.770;2.714;2022-09-12T10:27:06;101126.66;;;30.39;58.28
54266;BME280;40836;39.770;2.714;2022-09-12T10:29:34;101130.00;;;30.30;57.95
54266;BME280;40836;39.770;2.714;2022-09-12T10:32:06;101118.81;;;30.34;57.86
54266;BME280;40836;39.770;2.714;2022-09-12T10:37:05;101123.47;;;30.40;58.87
54266;BME280;40836;39.770;2.714;2022-09-12T10:39:32;101110.84;;;30.32;59.51
54266;BME280;40836;39.770;2.714;2022-09-12T10:41:59;101091.75;;;30.34;58.97
54266;BME280;40836;39.770;2.714;2022-09-12T10:44:31;101104.69;;;30.44;59.74
54266;BME280;40836;39.770;2.714;2022-09-12T10:46:58;101104.63;;;30.48;59.25
54266;BME280;40836;39.770;2.714;2022-09-12T10:49:30;101104.16;;;30.53;58.33
54266;BME280;40836;39.770;2.714;2022-09-12T10:52:24;101091.34;;;30.59;58.60
54266;BME280;40836;39.770;2.714;2022-09-12T10:54:50;101108.38;;;30.61;59.39
54266;BME280;40836;39.770;2.714;2022-09-12T11:00:07;101104.88;;;30.57;58.65
54266;BME280;40836;39.770;2.714;2022-09-12T11:10:42;101090.25;;;30.53;59.64
54266;BME280;40836;39.770;2.714;2022-09-12T11:13:24;101086.97;;;30.58;58.96
54266;BME280;40836;39.770;2.714;2022-09-12T11:34:08;101081.81;;;30.57;56.41
54266;BME280;40836;39.770;2.714;2022-09-12T11:39:38;101065.53;;;30.55;55.94
54266;BME280;40836;39.770;2.714;2022-09-12T11:44:58;101058.28;;;30.61;54.84
54266;BME280;40836;39.770;2.714;2022-09-12T11:47:28;101048.28;;;30.64;54.81
54266;BME280;40836;39.770;2.714;2022-09-12T11:49:57;101047.44;;;30.67;55.95
54266;BME280;40836;39.770;2.714;2022-09-12T11:52:28;101046.22;;;30.68;56.61
54266;BME280;40836;39.770;2.714;2022-09-12T12:00:18;101038.78;;;30.61;57.83
54266;BME280;40836;39.770;2.714;2022-09-12T12:08:10;101047.25;;;30.78;56.19
54266;BME280;40836;39.770;2.714;2022-09-12T12:10:44;101041.28;;;30.79;55.49
54266;BME280;40836;39.770;2.714;2022-09-12T12:15:50;101039.19;;;30.83;54.49
54266;BME280;40836;39.770;2.714;2022-09-12T12:18:28;101042.34;;;30.85;54.89
54266;BME280;40836;39.770;2.714;2022-09-12T12:20:54;101028.34;;;30.89;54.75
54266;BME280;40836;39.770;2.714;2022-09-12T12:23:32;101030.63;;;30.94;54.87
54266;BME280;40836;39.770;2.714;2022-09-12T12:26:00;101024.78;;;30.88;55.40
54266;BME280;40836;39.770;2.714;2022-09-12T12:31:07;101024.28;;;30.94;55.45
54266;BME280;40836;39.770;2.714;2022-09-12T12:38:30;101020.06;;;30.85;55.21
54266;BME280;40836;39.770;2.714;2022-09-12T12:43:42;101024.00;;;30.88;55.97
54266;BME280;40836;39.770;2.714;2022-09-12T12:46:10;101024.88;;;30.85;56.17
54266;BME280;40836;39.770;2.714;2022-09-12T12:48:46;101023.66;;;30.86;56.63
54266;BME280;40836;39.770;2.714;2022-09-12T12:53:48;101025.91;;;30.91;56.56
54266;BME280;40836;39.770;2.714;2022-09-12T12:56:39;101025.50;;;30.92;56.78
54266;BME280;40836;39.770;2.714;2022-09-12T12:59:20;101036.28;;;30.90;56.36
54266;BME280;40836;39.770;2.714;2022-09-12T13:01:49;101030.00;;;30.86;56.03
54266;BME280;40836;39.770;2.714;2022-09-12T13:04:18;101024.69;;;30.72;56.67
54266;BME280;40836;39.770;2.714;2022-09-12T13:07:04;101040.28;;;30.89;56.13
54266;BME280;40836;39.770;2.714;2022-09-12T13:09:46;101030.91;;;30.80;57.31
54266;BME280;40836;39.770;2.714;2022-09-12T13:12:23;101043.38;;;30.72;58.33
54266;BME280;40836;39.770;2.714;2022-09-12T13:14:52;101043.44;;;30.68;60.41
54266;BME280;40836;39.770;2.714;2022-09-12T13:17:26;101035.47;;;30.70;61.29
54266;BME280;40836;39.770;2.714;2022-09-12T13:20:21;101032.44;;;30.61;61.23
54266;BME280;40836;39.770;2.714;2022-09-12T13:22:48;101049.22;;;30.57;61.40
54266;BME280;40836;39.770;2.714;2022-09-12T13:25:22;101039.22;;;30.60;60.98
54266;BME280;40836;39.770;2.714;2022-09-12T13:30:34;101046.59;;;30.70;60.89
54266;BME280;40836;39.770;2.714;2022-09-12T13:38:56;101025.66;;;30.62;61.23
54266;BME280;40836;39.770;2.714;2022-09-12T13:41:42;101030.75;;;30.67;59.77
54266;BME280;40836;39.770;2.714;2022-09-12T13:44:15;101033.22;;;30.61;59.69
54266;BME280;40836;39.770;2.714;2022-09-12T13:46:42;101007.53;;;30.54;59.01
54266;BME280;40836;39.770;2.714;2022-09-12T13:49:46;101026.16;;;30.57;59.52
54266;BME280;40836;39.770;2.714;2022-09-12T13:52:21;101024.75;;;30.68;59.62
54266;BME280;40836;39.770;2.714;2022-09-12T13:54:49;101044.97;;;30.73;58.28
54266;BME280;40836;39.770;2.714;2022-09-12T13:57:45;101035.47;;;30.70;58.30
54266;BME280;40836;39.770;2.714;2022-09-12T14:00:20;101044.59;;;30.71;58.01
54266;BME280;40836;39.770;2.714;2022-09-12T14:02:46;101029.09;;;30.50;57.07
54266;BME280;40836;39.770;2.714;2022-09-12T14:05:18;101035.66;;;30.59;58.37
54266;BME280;40836;39.770;2.714;2022-09-12T14:07:47;101034.06;;;30.58;57.61
54266;BME280;40836;39.770;2.714;2022-09-12T14:10:28;101030.94;;;30.56;56.85
54266;BME280;40836;39.770;2.714;2022-09-12T14:12:55;101034.00;;;30.62;55.87
54266;BME280;40836;39.770;2.714;2022-09-12T14:15:26;101038.94;;;30.54;57.22
54266;BME280;40836;39.770;2.714;2022-09-12T14:18:01;101027.38;;;30.56;54.89
54266;BME280;40836;39.770;2.714;2022-09-12T14:20:28;101023.00;;;30.55;56.52
54266;BME280;40836;39.770;2.714;2022-09-12T14:23:01;101022.94;;;30.58;56.91
54266;BME280;40836;39.770;2.714;2022-09-12T14:25:38;101022.22;;;30.54;56.79
54266;BME280;40836;39.770;2.714;2022-09-12T14:28:06;101023.75;;;30.59;56.68
54266;BME280;40836;39.770;2.714;2022-09-12T14:30:36;101022.16;;;30.58;57.53
54266;BME280;40836;39.770;2.714;2022-09-12T14:38:24;101003.31;;;30.45;55.74
54266;BME280;40836;39.770;2.714;2022-09-12T14:41:09;101009.16;;;30.51;55.68
54266;BME280;40836;39.770;2.714;2022-09-12T14:43:44;101009.03;;;30.58;55.09
54266;BME280;40836;39.770;2.714;2022-09-12T14:46:37;100994.69;;;30.60;54.45
54266;BME280;40836;39.770;2.714;2022-09-12T14:56:57;100980.84;;;30.76;53.66
54266;BME280;40836;39.770;2.714;2022-09-12T15:04:48;100951.81;;;30.77;53.01
54266;BME280;40836;39.770;2.714;2022-09-12T15:09:49;100958.53;;;30.80;53.34
54266;BME280;40836;39.770;2.714;2022-09-12T15:12:15;100962.75;;;30.88;53.13
54266;BME280;40836;39.770;2.714;2022-09-12T15:14:40;100959.25;;;30.84;53.23
54266;BME280;40836;39.770;2.714;2022-09-12T15:17:06;100954.03;;;30.86;53.91
54266;BME280;40836;39.770;2.714;2022-09-12T15:19:31;100944.81;;;30.89;53.31
54266;BME280;40836;39.770;2.714;2022-09-12T15:21:56;100944.28;;;30.94;52.99
54266;BME280;40836;39.770;2.714;2022-09-12T15:24:22;100939.09;;;30.96;52.97
54266;BME280;40836;39.770;2.714;2022-09-12T15:26:47;100932.38;;;30.94;52.42
54266;BME280;40836;39.770;2.714;2022-09-12T15:29:13;100932.81;;;30.92;52.96
54266;BME280;40836;39.770;2.714;2022-09-12T15:31:39;100933.88;;;30.98;52.58
54266;BME280;40836;39.770;2.714;2022-09-12T15:34:04;100928.41;;;30.95;52.60
54266;BME280;40836;39.770;2.714;2022-09-12T15:36:30;100904.88;;;30.79;52.71
54266;BME280;40836;39.770;2.714;2022-09-12T15:38:56;100916.97;;;30.89;53.36
54266;BME280;40836;39.770;2.714;2022-09-12T15:41:34;100911.69;;;30.95;53.77
54266;BME280;40836;39.770;2.714;2022-09-12T15:44:05;100912.47;;;30.95;53.64